Time;durP1;ratioP1;P1;durP2;ratioP2;P2;SDS_P1;SDS_P2;PMS_P1;PMS_P2;Temp;Humidity;BMP_temperature;BMP_pressure;BME280_temperature;BME280_humidity;BME280_pressure;Samples;Min_cycle;Max_cycle;Signal;HPM_P1;HPM_P2
2022/04/30 00:00:47;;;;;;;;;;;;;;;13.40;50.06;103010.94;5073700;28;19939;-73
2022/04/30 00:03:12;;;;;;;;;;;;;;;14.03;48.08;103018.22;5075419;28;20387;-72
2022/04/30 00:05:38;;;;;;;;;;;;;;;13.43;49.99;103010.53;5074612;28;20395;-72
2022/04/30 00:08:04;;;;;;;;;;;;;;;13.80;48.07;103012.16;5074588;28;19924;-72
2022/04/30 00:10:30;;;;;;;;;;;;;;;13.71;49.36;103011.47;5065159;28;20434;-72
2022/04/30 00:13:11;;;;;;;;;;;;;;;13.55;48.74;103009.00;5054579;28;19971;-72
2022/04/30 00:15:36;;;;;;;;;;;;;;;13.82;48.67;103010.94;5069435;28;19934;-73
2022/04/30 00:18:02;;;;;;;;;;;;;;;13.66;48.97;103008.50;5055010;28;20004;-74
2022/04/30 00:20:27;;;;;;;;;;;;;;;14.08;48.02;103013.06;5054432;28;19948;-72
2022/04/30 00:22:52;;;;;;;;;;;;;;;14.06;48.33;103013.25;5053986;28;20584;-72
2022/04/30 00:25:18;;;;;;;;;;;;;;;14.34;47.03;103007.88;5054528;28;19921;-71
2022/04/30 00:27:44;;;;;;;;;;;;;;;14.19;47.25;103012.50;5054216;28;19924;-72
2022/04/30 00:30:28;;;;;;;;;;;;;;;14.06;48.08;103005.13;5054495;28;19991;-72
2022/04/30 00:32:54;;;;;;;;;;;;;;;13.78;48.69;103009.66;5054292;28;20376;-72
2022/04/30 00:35:20;;;;;;;;;;;;;;;13.98;48.43;102999.03;5053988;28;20288;-72
2022/04/30 00:37:45;;;;;;;;;;;;;;;13.97;48.26;102995.47;5058847;28;20000;-73
2022/04/30 00:40:11;;;;;;;;;;;;;;;13.56;49.10;103001.75;5073275;28;20011;-73
2022/04/30 00:42:36;;;;;;;;;;;;;;;13.68;49.08;102992.13;5088194;28;20368;-73
2022/04/30 00:45:03;;;;;;;;;;;;;;;13.34;50.22;102994.66;5068765;28;19920;-74
2022/04/30 00:47:28;;;;;;;;;;;;;;;13.44;49.64;102992.47;5052616;28;20007;-73
2022/04/30 00:49:53;;;;;;;;;;;;;;;13.09;51.01;102989.59;5052448;28;19960;-74
2022/04/30 00:52:19;;;;;;;;;;;;;;;14.00;48.72;102989.69;5052424;28;19921;-76
2022/04/30 00:54:56;;;;;;;;;;;;;;;13.82;48.56;102983.91;5052480;28;19929;-73
2022/04/30 00:57:22;;;;;;;;;;;;;;;13.87;47.90;102978.78;5052825;28;19917;-72
2022/04/30 00:59:52;;;;;;;;;;;;;;;13.54;49.76;102974.91;5052816;28;19974;-74
2022/04/30 01:02:18;;;;;;;;;;;;;;;13.33;50.18;102976.75;5052711;28;19917;-73
2022/04/30 01:04:43;;;;;;;;;;;;;;;13.30;50.55;102972.59;5052525;28;19932;-73
2022/04/30 01:07:09;;;;;;;;;;;;;;;13.37;50.65;102972.66;5052938;28;19925;-74
2022/04/30 01:09:38;;;;;;;;;;;;;;;13.85;48.84;102971.88;5054833;28;19951;-73
2022/04/30 01:12:06;;;;;;;;;;;;;;;13.88;48.69;102968.78;5073153;28;19928;-74
2022/04/30 01:14:32;;;;;;;;;;;;;;;13.43;49.60;102970.03;5062463;28;19921;-76
2022/04/30 01:16:57;;;;;;;;;;;;;;;13.69;48.96;102967.59;5052619;28;20286;-74
2022/04/30 01:19:24;;;;;;;;;;;;;;;13.76;48.96;102971.19;5052010;28;19947;-73
2022/04/30 01:21:55;;;;;;;;;;;;;;;13.45;49.86;102970.69;5051093;28;19921;-73
2022/04/30 01:24:21;;;;;;;;;;;;;;;13.98;48.40;102969.28;5052511;28;19920;-73
2022/04/30 01:26:47;;;;;;;;;;;;;;;13.26;50.60;102962.38;5052492;28;19986;-74
2022/04/30 01:29:12;;;;;;;;;;;;;;;13.45;50.53;102967.13;5051913;28;19921;-74
2022/04/30 01:37:25;;;;;;;;;;;;;;;13.27;51.32;102964.06;5072673;28;20456;-73
2022/04/30 01:40:03;;;;;;;;;;;;;;;13.43;50.17;102953.81;5072176;28;19939;-73
2022/04/30 01:42:29;;;;;;;;;;;;;;;12.97;51.71;102961.38;5072147;28;19916;-73
2022/04/30 01:44:55;;;;;;;;;;;;;;;12.91;52.04;102967.53;5072226;28;20399;-74
2022/04/30 01:47:22;;;;;;;;;;;;;;;12.83;51.96;102958.72;5072207;28;19916;-74
2022/04/30 01:49:47;;;;;;;;;;;;;;;13.52;50.08;102965.34;5072130;28;19920;-74
2022/04/30 01:52:13;;;;;;;;;;;;;;;13.52;49.70;102962.66;5072101;28;19954;-75
2022/04/30 01:54:39;;;;;;;;;;;;;;;13.57;49.47;102955.63;5072151;28;20006;-74
2022/04/30 01:57:04;;;;;;;;;;;;;;;13.50;49.73;102957.44;5072312;28;20004;-73
2022/04/30 01:59:30;;;;;;;;;;;;;;;13.34;50.30;102955.00;5089477;28;19944;-73
2022/04/30 02:01:56;;;;;;;;;;;;;;;13.39;50.36;102946.28;5075966;28;20351;-75
2022/04/30 02:04:21;;;;;;;;;;;;;;;13.00;51.21;102954.75;5075778;28;19966;-74
2022/04/30 02:06:47;;;;;;;;;;;;;;;13.36;49.81;102944.00;5075547;28;19964;-74
2022/04/30 02:09:14;;;;;;;;;;;;;;;13.46;49.13;102944.50;5076182;28;19947;-74
2022/04/30 02:11:40;;;;;;;;;;;;;;;13.51;48.77;102936.66;5058407;28;19927;-74
2022/04/30 02:14:07;;;;;;;;;;;;;;;13.29;49.74;102935.00;5055577;28;20007;-73
2022/04/30 02:16:34;;;;;;;;;;;;;;;13.38;48.82;102939.22;5055409;28;19936;-73
2022/04/30 02:19:00;;;;;;;;;;;;;;;13.16;48.81;102930.28;5055457;28;20035;-74
2022/04/30 02:21:29;;;;;;;;;;;;;;;13.10;49.29;102933.75;5055530;28;19912;-72
2022/04/30 02:23:57;;;;;;;;;;;;;;;12.96;50.24;102937.28;5056161;28;20394;-75
2022/04/30 02:26:22;;;;;;;;;;;;;;;12.92;49.53;102934.13;5055598;28;19917;-73
2022/04/30 02:28:47;;;;;;;;;;;;;;;12.84;51.09;102930.69;5055216;28;20395;-73
2022/04/30 02:31:23;;;;;;;;;;;;;;;12.90;49.90;102933.47;5064324;28;19971;-74
2022/04/30 02:33:48;;;;;;;;;;;;;;;12.93;49.67;102929.56;5055588;28;19932;-73
2022/04/30 02:36:15;;;;;;;;;;;;;;;12.82;49.16;102928.19;5055677;28;19913;-73
2022/04/30 02:38:41;;;;;;;;;;;;;;;12.90;49.14;102924.53;5055361;28;20430;-73
2022/04/30 02:41:06;;;;;;;;;;;;;;;12.82;48.86;102922.78;5055364;28;19917;-73
2022/04/30 02:43:32;;;;;;;;;;;;;;;12.78;49.17;102924.19;5055224;28;20023;-73
2022/04/30 02:45:57;;;;;;;;;;;;;;;12.96;49.03;102919.22;5066405;28;20021;-73
2022/04/30 02:48:22;;;;;;;;;;;;;;;12.59;50.12;102915.84;5074845;28;19959;-73
2022/04/30 02:50:48;;;;;;;;;;;;;;;12.78;50.20;102917.94;5075599;28;20547;-73
2022/04/30 02:53:14;;;;;;;;;;;;;;;12.70;50.28;102905.41;5074990;28;19994;-74
2022/04/30 02:55:39;;;;;;;;;;;;;;;12.72;50.00;102906.06;5075103;28;19925;-73
2022/04/30 03:00:51;;;;;;;;;;;;;;;12.58;51.13;102901.53;5074958;28;19927;-74
2022/04/30 03:03:17;;;;;;;;;;;;;;;12.65;50.24;102905.16;5075394;28;20046;-75
2022/04/30 03:05:47;;;;;;;;;;;;;;;12.42;50.82;102904.44;5074589;28;20078;-74
2022/04/30 03:08:14;;;;;;;;;;;;;;;12.50;50.47;102893.53;5074571;28;20404;-73
2022/04/30 03:10:39;;;;;;;;;;;;;;;12.55;51.30;102899.22;5065364;28;19925;-73
2022/04/30 03:13:05;;;;;;;;;;;;;;;12.77;50.33;102900.09;5054559;28;20355;-73
2022/04/30 03:15:32;;;;;;;;;;;;;;;12.32;51.69;102896.63;5054181;28;19920;-73
2022/04/30 03:23:25;;;;;;;;;;;;;;;12.40;51.05;102890.31;5054554;28;20015;-73
2022/04/30 03:25:50;;;;;;;;;;;;;;;12.33;50.90;102883.97;5054416;28;20300;-74
2022/04/30 03:28:15;;;;;;;;;;;;;;;12.52;50.52;102890.66;5072597;28;19920;-73
2022/04/30 03:30:41;;;;;;;;;;;;;;;12.46;50.70;102878.75;5074156;28;19934;-74
2022/04/30 03:33:09;;;;;;;;;;;;;;;12.41;50.81;102881.19;5056111;28;20015;-75
2022/04/30 03:35:38;;;;;;;;;;;;;;;12.23;50.64;102878.88;5054587;28;20424;-74
2022/04/30 03:38:04;;;;;;;;;;;;;;;12.28;50.22;102875.63;5054593;28;20011;-75
2022/04/30 03:40:29;;;;;;;;;;;;;;;12.29;50.29;102877.28;5054404;28;20011;-74
2022/04/30 03:42:54;;;;;;;;;;;;;;;12.17;50.40;102881.47;5054285;28;19955;-74
2022/04/30 03:45:20;;;;;;;;;;;;;;;12.20;50.93;102875.72;5060835;28;19924;-74
2022/04/30 03:47:45;;;;;;;;;;;;;;;12.21;51.93;102875.53;5074423;28;19920;-74
2022/04/30 03:50:11;;;;;;;;;;;;;;;12.25;51.66;102875.97;5089509;28;20041;-75
2022/04/30 03:52:36;;;;;;;;;;;;;;;12.40;50.73;102871.44;5074141;28;19960;-74
2022/04/30 03:55:02;;;;;;;;;;;;;;;12.41;50.79;102869.56;5072360;28;19978;-74
2022/04/30 03:57:28;;;;;;;;;;;;;;;12.37;51.29;102869.09;5073735;28;19923;-74
2022/04/30 03:59:54;;;;;;;;;;;;;;;12.32;51.19;102866.16;5074696;28;19947;-74
2022/04/30 04:02:19;;;;;;;;;;;;;;;12.42;51.37;102871.25;5070733;28;19920;-74
2022/04/30 04:04:45;;;;;;;;;;;;;;;12.32;51.34;102866.97;5064134;28;20279;-74
2022/04/30 04:07:10;;;;;;;;;;;;;;;12.34;51.59;102873.00;5073265;28;19924;-74
2022/04/30 04:09:35;;;;;;;;;;;;;;;12.36;51.80;102870.94;5071422;28;19953;-73
2022/04/30 04:12:00;;;;;;;;;;;;;;;12.22;51.72;102868.28;5073917;28;20305;-73
2022/04/30 04:19:53;;;;;;;;;;;;;;;12.44;51.38;102878.13;5073133;28;20129;-73
2022/04/30 04:22:18;;;;;;;;;;;;;;;12.56;51.47;102876.59;5071375;28;19944;-73
2022/04/30 04:27:29;;;;;;;;;;;;;;;12.31;52.14;102873.38;5053424;28;19923;-72
2022/04/30 04:29:55;;;;;;;;;;;;;;;12.70;51.41;102874.91;5053821;28;20331;-74
2022/04/30 04:32:20;;;;;;;;;;;;;;;12.59;51.97;102875.41;5065687;28;19999;-73
2022/04/30 04:34:45;;;;;;;;;;;;;;;12.65;51.67;102859.31;5073190;28;19924;-74
2022/04/30 04:37:10;;;;;;;;;;;;;;;12.68;51.34;102868.84;5073709;28;19974;-74
2022/04/30 04:39:36;;;;;;;;;;;;;;;12.93;50.91;102868.31;5073363;28;19970;-73
2022/04/30 04:42:01;;;;;;;;;;;;;;;12.87;51.69;102868.28;5073539;28;19912;-74
2022/04/30 04:44:26;;;;;;;;;;;;;;;12.98;51.27;102875.84;5054358;28;20320;-74
2022/04/30 04:46:51;;;;;;;;;;;;;;;12.61;52.11;102870.66;5053899;28;19921;-73
2022/04/30 04:49:17;;;;;;;;;;;;;;;11.67;54.94;102871.41;5053175;28;19959;-73
2022/04/30 04:51:42;;;;;;;;;;;;;;;12.34;53.00;102875.69;5052692;28;19920;-75
2022/04/30 04:54:08;;;;;;;;;;;;;;;12.64;52.46;102878.38;5053146;28;20050;-73
2022/04/30 04:56:33;;;;;;;;;;;;;;;12.84;51.38;102880.28;5052830;28;19927;-73
2022/04/30 04:58:58;;;;;;;;;;;;;;;12.69;51.83;102875.94;5053363;28;19969;-74
2022/04/30 05:01:24;;;;;;;;;;;;;;;12.85;51.89;102883.81;5052586;28;19921;-74
2022/04/30 05:03:49;;;;;;;;;;;;;;;12.95;51.71;102887.03;5053146;28;20059;-74
2022/04/30 05:06:14;;;;;;;;;;;;;;;12.85;51.90;102883.81;5053381;28;19920;-74
2022/04/30 05:08:40;;;;;;;;;;;;;;;13.21;50.82;102885.47;5052129;28;19925;-74
2022/04/30 05:11:05;;;;;;;;;;;;;;;13.24;50.62;102884.25;5065989;28;19921;-75
2022/04/30 05:13:30;;;;;;;;;;;;;;;12.83;51.66;102884.00;5060085;28;19920;-74
2022/04/30 05:15:55;;;;;;;;;;;;;;;12.23;53.83;102891.50;5062116;28;19925;-73
2022/04/30 05:18:21;;;;;;;;;;;;;;;13.01;51.84;102894.38;5060560;28;19912;-74
2022/04/30 05:20:46;;;;;;;;;;;;;;;13.07;51.48;102891.75;5061801;28;19921;-73
2022/04/30 05:23:12;;;;;;;;;;;;;;;13.10;51.92;102890.56;5060916;28;19974;-73
2022/04/30 05:25:40;;;;;;;;;;;;;;;13.18;51.74;102895.84;5062380;28;20434;-73
2022/04/30 05:28:05;;;;;;;;;;;;;;;13.33;51.33;102887.66;5062570;28;19966;-73
2022/04/30 05:30:30;;;;;;;;;;;;;;;13.53;51.14;102894.91;5057658;28;20372;-73
2022/04/30 05:32:56;;;;;;;;;;;;;;;13.84;50.44;102897.25;5068819;28;20007;-73
2022/04/30 05:35:21;;;;;;;;;;;;;;;13.13;52.67;102890.16;5072737;28;19920;-73
2022/04/30 05:37:46;;;;;;;;;;;;;;;13.57;51.78;102892.66;5070978;28;19916;-72
2022/04/30 05:40:12;;;;;;;;;;;;;;;13.59;51.86;102886.03;5072121;28;20358;-74
2022/04/30 05:42:37;;;;;;;;;;;;;;;13.88;51.65;102887.69;5071875;28;19962;-72
2022/04/30 05:45:02;;;;;;;;;;;;;;;13.88;51.72;102887.69;5068633;28;19917;-73
2022/04/30 05:47:27;;;;;;;;;;;;;;;13.99;51.63;102885.28;5050564;28;20557;-73
2022/04/30 05:49:53;;;;;;;;;;;;;;;14.21;50.81;102888.75;5052376;28;19992;-73
2022/04/30 05:52:21;;;;;;;;;;;;;;;14.22;50.49;102889.59;5060035;28;20043;-72
2022/04/30 05:54:47;;;;;;;;;;;;;;;14.69;49.85;102893.19;5072342;28;20927;-72
2022/04/30 05:57:12;;;;;;;;;;;;;;;14.43;50.85;102892.22;5072898;28;19923;-73
2022/04/30 05:59:37;;;;;;;;;;;;;;;14.62;50.61;102895.03;5072251;28;20308;-72
2022/04/30 06:02:02;;;;;;;;;;;;;;;15.10;49.41;102893.13;5068621;28;19970;-73
2022/04/30 06:04:28;;;;;;;;;;;;;;;14.76;50.46;102901.34;5062206;28;19974;-73
2022/04/30 06:06:53;;;;;;;;;;;;;;;14.64;51.14;102897.56;5060825;28;19935;-72
2022/04/30 06:09:19;;;;;;;;;;;;;;;14.88;50.32;102886.16;5061662;28;19974;-73
2022/04/30 06:11:44;;;;;;;;;;;;;;;15.76;48.05;102894.88;5063224;28;19920;-72
2022/04/30 06:14:09;;;;;;;;;;;;;;;15.59;48.15;102893.63;5062125;28;19927;-72
2022/04/30 06:16:35;;;;;;;;;;;;;;;15.44;49.01;102892.16;5055197;28;19988;-73
2022/04/30 06:19:00;;;;;;;;;;;;;;;15.74;48.35;102888.00;5064512;28;19967;-71
2022/04/30 06:21:25;;;;;;;;;;;;;;;15.48;48.45;102891.53;5060280;28;19939;-72
2022/04/30 06:23:50;;;;;;;;;;;;;;;15.44;48.98;102892.16;5065772;28;19920;-71
2022/04/30 06:26:15;;;;;;;;;;;;;;;15.00;50.26;102894.56;5067694;28;19921;-71
2022/04/30 06:28:41;;;;;;;;;;;;;;;15.60;48.44;102895.31;5066402;28;19932;-72
2022/04/30 06:31:06;;;;;;;;;;;;;;;15.84;48.20;102889.22;5063095;28;19931;-71
2022/04/30 06:33:31;;;;;;;;;;;;;;;15.96;47.54;102889.41;5071805;28;19917;-72
2022/04/30 06:35:57;;;;;;;;;;;;;;;15.93;47.63;102892.56;5060244;28;19959;-73
2022/04/30 06:38:22;;;;;;;;;;;;;;;16.02;47.39;102895.91;5062923;28;19994;-71
2022/04/30 06:40:48;;;;;;;;;;;;;;;16.14;46.25;102889.59;5062954;28;19917;-71
2022/04/30 06:43:13;;;;;;;;;;;;;;;16.27;46.21;102897.72;5059058;28;20377;-71
2022/04/30 06:48:12;;;;;;;;;;;;;;;15.60;46.91;102897.19;5007110;23;19925;-67
2022/04/30 06:50:38;;;;;;;;;;;;;;;16.01;46.05;102889.63;5009649;28;19918;-66
2022/04/30 06:58:41;;;;;;;;;;;;;;;16.14;46.18;102888.75;4994800;28;19932;-67
2022/04/30 07:03:55;;;;;;;;;;;;;;;16.97;43.63;102882.41;4994651;28;19929;-67
2022/04/30 07:06:20;;;;;;;;;;;;;;;16.27;44.79;102875.19;4998914;28;20008;-66
2022/04/30 07:08:46;;;;;;;;;;;;;;;17.37;42.94;102879.25;5013938;28;20076;-68
2022/04/30 07:11:11;;;;;;;;;;;;;;;17.12;43.46;102878.34;5024216;28;20279;-68
2022/04/30 07:13:37;;;;;;;;;;;;;;;17.09;43.74;102877.97;4995234;28;19953;-67
2022/04/30 07:16:04;;;;;;;;;;;;;;;17.43;42.60;102878.34;5003243;28;19918;-67
2022/04/30 07:18:29;;;;;;;;;;;;;;;17.82;42.02;102873.66;5014613;28;19921;-67
2022/04/30 07:20:55;;;;;;;;;;;;;;;17.98;41.19;102873.94;5015191;28;19925;-66
2022/04/30 07:23:21;;;;;;;;;;;;;;;17.87;41.42;102876.53;5014425;28;19925;-67
2022/04/30 07:25:46;;;;;;;;;;;;;;;17.90;41.31;102874.22;5014697;28;19932;-67
2022/04/30 07:28:11;;;;;;;;;;;;;;;18.03;40.71;102865.06;5014535;28;20382;-67
2022/04/30 07:30:36;;;;;;;;;;;;;;;18.20;40.44;102868.88;5014478;28;20012;-67
2022/04/30 07:33:02;;;;;;;;;;;;;;;18.02;40.70;102866.13;5006263;28;20012;-66
2022/04/30 07:35:27;;;;;;;;;;;;;;;17.02;41.88;102875.28;5003826;28;19930;-66
2022/04/30 07:37:52;;;;;;;;;;;;;;;17.09;41.36;102883.41;5004949;28;20305;-65
2022/04/30 07:40:17;;;;;;;;;;;;;;;17.35;41.44;102886.78;4997864;28;19961;-66
2022/04/30 07:42:43;;;;;;;;;;;;;;;18.14;39.97;102877.94;5017394;28;20336;-67
2022/04/30 07:45:08;;;;;;;;;;;;;;;18.58;38.88;102876.81;5026447;28;20612;-66
2022/04/30 07:47:33;;;;;;;;;;;;;;;17.68;40.41;102882.97;4995547;28;20321;-66
2022/04/30 07:49:58;;;;;;;;;;;;;;;17.91;40.23;102884.03;5002036;28;20016;-66
2022/04/30 07:52:25;;;;;;;;;;;;;;;17.31;41.53;102882.84;5002030;28;19929;-66
2022/04/30 07:54:50;;;;;;;;;;;;;;;16.43;42.98;102882.88;5002409;28;19964;-67
2022/04/30 07:57:16;;;;;;;;;;;;;;;17.32;40.99;102880.94;5004709;28;20621;-66
2022/04/30 07:59:44;;;;;;;;;;;;;;;17.64;41.41;102879.03;5012133;28;19922;-66
2022/04/30 08:02:09;;;;;;;;;;;;;;;18.02;40.54;102880.59;5001540;28;20479;-66
2022/04/30 08:04:34;;;;;;;;;;;;;;;18.00;39.88;102873.69;4996596;28;19932;-67
2022/04/30 08:07:00;;;;;;;;;;;;;;;17.98;39.89;102873.94;4994304;28;19922;-69
2022/04/30 08:09:25;;;;;;;;;;;;;;;17.82;40.55;102876.38;5011622;28;19964;-67
2022/04/30 08:11:51;;;;;;;;;;;;;;;18.01;40.67;102875.34;5033714;28;20007;-68
2022/04/30 08:14:16;;;;;;;;;;;;;;;18.22;39.85;102874.94;5032057;28;19932;-69
2022/04/30 08:16:41;;;;;;;;;;;;;;;18.39;38.73;102862.38;5032967;28;20403;-69
2022/04/30 08:19:06;;;;;;;;;;;;;;;18.31;38.96;102852.63;5033185;28;20368;-69
2022/04/30 08:21:32;;;;;;;;;;;;;;;18.41;38.55;102854.81;5003320;28;19952;-66
2022/04/30 08:23:57;;;;;;;;;;;;;;;16.21;43.08;102862.47;4993999;28;19957;-68
2022/04/30 08:26:22;;;;;;;;;;;;;;;17.32;41.54;102865.47;4993564;28;19921;-69
2022/04/30 08:28:47;;;;;;;;;;;;;;;16.52;43.48;102862.59;4993827;28;20346;-68
2022/04/30 08:31:13;;;;;;;;;;;;;;;16.85;42.63;102852.41;4998681;28;19932;-68
2022/04/30 08:33:38;;;;;;;;;;;;;;;17.20;41.88;102855.50;5013091;28;19918;-67
2022/04/30 08:36:03;;;;;;;;;;;;;;;17.43;42.17;102859.31;5031278;28;20016;-68
2022/04/30 08:38:29;;;;;;;;;;;;;;;16.75;44.01;102862.06;5008262;28;19921;-67
2022/04/30 08:40:54;;;;;;;;;;;;;;;16.12;47.27;102853.72;5004333;28;19923;-67
2022/04/30 08:43:20;;;;;;;;;;;;;;;16.34;47.10;102849.69;5012585;28;19935;-68
2022/04/30 08:45:45;;;;;;;;;;;;;;;16.84;46.16;102858.06;5012929;28;19972;-67
2022/04/30 08:48:12;;;;;;;;;;;;;;;16.54;47.37;102857.78;5012977;28;20008;-68
2022/04/30 08:50:38;;;;;;;;;;;;;;;16.51;47.49;102859.03;5003609;28;19921;-68
2022/04/30 08:53:03;;;;;;;;;;;;;;;16.80;46.37;102863.09;5002563;28;19925;-68
2022/04/30 08:55:29;;;;;;;;;;;;;;;16.77;46.36;102858.09;5008598;28;20431;-68
2022/04/30 08:57:54;;;;;;;;;;;;;;;16.52;46.65;102855.28;5012870;28;19921;-68
2022/04/30 09:00:20;;;;;;;;;;;;;;;15.24;48.66;102864.19;5013306;28;19924;-68
2022/04/30 09:02:52;;;;;;;;;;;;;;;15.94;47.07;102863.59;5007319;28;20397;-68
2022/04/30 09:05:17;;;;;;;;;;;;;;;15.21;47.65;102861.91;5003412;28;20408;-68
2022/04/30 09:07:51;;;;;;;;;;;;;;;15.27;47.54;102859.16;5002087;28;19918;-67
2022/04/30 09:10:20;;;;;;;;;;;;;;;15.21;47.36;102860.03;5003566;28;19922;-68
2022/04/30 09:12:46;;;;;;;;;;;;;;;15.02;49.05;102860.00;5002002;28;20389;-67
2022/04/30 09:15:17;;;;;;;;;;;;;;;15.85;46.52;102868.38;5003871;28;20004;-68
2022/04/30 09:17:43;;;;;;;;;;;;;;;15.80;46.85;102868.19;5000186;28;19928;-67
2022/04/30 09:20:16;;;;;;;;;;;;;;;15.14;48.48;102864.59;5002773;28;19921;-68
2022/04/30 09:22:41;;;;;;;;;;;;;;;15.13;48.68;102865.63;5000160;28;19921;-67
2022/04/30 09:25:12;;;;;;;;;;;;;;;15.62;47.97;102866.13;5002461;28;19918;-67
2022/04/30 09:27:41;;;;;;;;;;;;;;;15.84;47.51;102859.41;5001650;28;19969;-69
2022/04/30 09:30:29;;;;;;;;;;;;;;;16.15;46.49;102857.91;5002034;28;19918;-68
2022/04/30 09:32:59;;;;;;;;;;;;;;;15.71;47.37;102855.88;4990035;28;20358;-67
2022/04/30 09:38:08;;;;;;;;;;;;;;;15.17;49.30;102866.06;5005334;28;19924;-69
2022/04/30 09:40:34;;;;;;;;;;;;;;;15.58;48.35;102862.16;4999469;28;19925;-69
2022/04/30 09:43:01;;;;;;;;;;;;;;;15.30;48.79;102853.34;5002287;28;19929;-66
2022/04/30 09:45:33;;;;;;;;;;;;;;;16.23;46.61;102853.09;5009205;28;19913;-67
2022/04/30 09:48:00;;;;;;;;;;;;;;;15.34;48.58;102854.63;5000264;28;19926;-69
2022/04/30 09:55:55;;;;;;;;;;;;;;;16.15;47.04;102845.19;5003518;28;19928;-70
2022/04/30 09:58:24;;;;;;;;;;;;;;;16.04;47.27;102845.81;5001176;28;20333;-70
2022/04/30 10:00:53;;;;;;;;;;;;;;;16.27;46.88;102846.19;4999634;28;19925;-67
2022/04/30 10:03:18;;;;;;;;;;;;;;;15.73;47.99;102845.66;5000480;28;19926;-70
2022/04/30 10:05:43;;;;;;;;;;;;;;;15.90;47.25;102844.16;5001646;28;20043;-67
2022/04/30 10:08:09;;;;;;;;;;;;;;;16.09;47.17;102840.59;4999070;28;19922;-67
2022/04/30 10:10:51;;;;;;;;;;;;;;;16.42;46.36;102840.47;4997229;28;19926;-67
2022/04/30 10:13:24;;;;;;;;;;;;;;;15.75;48.17;102838.16;4999451;28;19922;-67
2022/04/30 10:15:51;;;;;;;;;;;;;;;15.89;47.50;102841.66;5000201;28;20370;-67
2022/04/30 10:18:18;;;;;;;;;;;;;;;16.08;47.10;102838.91;4992772;28;19921;-67
2022/04/30 10:21:00;;;;;;;;;;;;;;;16.58;46.02;102835.44;4997573;28;20355;-68
2022/04/30 10:23:26;;;;;;;;;;;;;;;16.28;46.28;102836.97;4994860;28;19991;-69
2022/04/30 10:25:51;;;;;;;;;;;;;;;16.91;45.02;102837.97;5008277;28;20388;-68
2022/04/30 10:28:26;;;;;;;;;;;;;;;17.01;45.04;102832.88;5014405;28;19968;-67
2022/04/30 10:31:02;;;;;;;;;;;;;;;17.41;43.86;102820.63;5014306;28;20319;-68
2022/04/30 10:33:28;;;;;;;;;;;;;;;16.88;43.75;102829.41;4994529;28;19922;-69
2022/04/30 10:36:06;;;;;;;;;;;;;;;16.51;43.44;102812.09;5014602;28;20055;-68
2022/04/30 10:38:32;;;;;;;;;;;;;;;16.98;42.42;102825.16;4998860;28;19922;-67
2022/04/30 10:40:58;;;;;;;;;;;;;;;17.50;40.96;102810.38;5005875;28;20308;-68
2022/04/30 10:43:26;;;;;;;;;;;;;;;17.27;41.18;102813.69;5005915;28;19987;-68
2022/04/30 10:45:52;;;;;;;;;;;;;;;17.31;40.81;102820.34;5002829;28;19921;-68
2022/04/30 10:48:18;;;;;;;;;;;;;;;17.10;41.45;102811.72;5003365;28;19925;-68
2022/04/30 10:50:45;;;;;;;;;;;;;;;17.47;40.74;102810.78;5003063;28;20381;-68
2022/04/30 10:53:12;;;;;;;;;;;;;;;17.44;39.81;102811.22;5002861;28;20409;-68
2022/04/30 10:55:39;;;;;;;;;;;;;;;17.93;39.68;102802.19;5003631;28;19928;-68
2022/04/30 10:58:04;;;;;;;;;;;;;;;18.67;38.40;102796.47;5004711;28;20329;-69
2022/04/30 11:00:29;;;;;;;;;;;;;;;19.22;37.03;102789.75;5003664;28;20028;-68
2022/04/30 11:03:05;;;;;;;;;;;;;;;17.41;39.56;102798.91;5004189;28;19976;-68
2022/04/30 11:05:30;;;;;;;;;;;;;;;18.59;38.17;102794.91;4995275;28;20085;-68
2022/04/30 11:07:55;;;;;;;;;;;;;;;18.36;36.98;102786.59;4997147;28;19980;-69
2022/04/30 11:10:21;;;;;;;;;;;;;;;18.87;35.19;102783.41;5017184;28;19925;-69
2022/04/30 11:12:46;;;;;;;;;;;;;;;18.40;36.59;102771.47;5014029;28;19918;-68
2022/04/30 11:15:15;;;;;;;;;;;;;;;19.37;35.61;102781.13;4995799;28;19922;-67
2022/04/30 11:17:44;;;;;;;;;;;;;;;19.59;35.23;102777.59;5002061;28;19921;-68
2022/04/30 11:20:10;;;;;;;;;;;;;;;19.22;35.52;102776.13;5014327;28;19922;-69
2022/04/30 11:22:35;;;;;;;;;;;;;;;18.49;37.06;102777.44;5014470;28;19922;-68
2022/04/30 11:25:00;;;;;;;;;;;;;;;17.82;38.70;102783.91;5014120;28;19929;-67
2022/04/30 11:27:29;;;;;;;;;;;;;;;18.66;36.57;102767.56;5014230;28;19914;-69
2022/04/30 11:29:57;;;;;;;;;;;;;;;18.64;36.54;102766.97;5014664;28;19918;-68
2022/04/30 11:32:24;;;;;;;;;;;;;;;18.96;35.72;102768.38;5005233;28;20012;-68
2022/04/30 11:34:50;;;;;;;;;;;;;;;18.90;35.21;102763.84;5009641;28;20399;-67
2022/04/30 11:37:15;;;;;;;;;;;;;;;19.54;34.56;102774.72;5033964;28;19925;-69
2022/04/30 11:39:40;;;;;;;;;;;;;;;18.88;35.81;102764.09;5022017;28;20108;-68
2022/04/30 11:42:06;;;;;;;;;;;;;;;19.02;36.25;102756.53;4994973;28;19915;-68
2022/04/30 11:44:31;;;;;;;;;;;;;;;18.30;37.24;102758.41;4994426;28;19975;-67
2022/04/30 11:46:57;;;;;;;;;;;;;;;17.81;38.81;102764.03;5013233;28;20403;-69
2022/04/30 11:49:24;;;;;;;;;;;;;;;17.75;38.97;102766.84;5013591;28;19940;-70
2022/04/30 11:51:51;;;;;;;;;;;;;;;17.76;38.98;102768.47;5013719;28;19925;-67
2022/04/30 11:54:21;;;;;;;;;;;;;;;17.97;38.60;102768.03;4996044;28;20007;-69
2022/04/30 11:56:46;;;;;;;;;;;;;;;17.04;39.79;102771.84;4994392;28;19925;-67
2022/04/30 11:59:12;;;;;;;;;;;;;;;17.09;39.98;102770.13;4999112;28;19918;-68
2022/04/30 12:01:42;;;;;;;;;;;;;;;18.19;38.75;102767.34;5013466;28;19921;-69
2022/04/30 12:04:11;;;;;;;;;;;;;;;18.43;37.50;102768.31;5012741;28;19963;-70
2022/04/30 12:06:37;;;;;;;;;;;;;;;17.28;39.81;102774.56;5013151;28;19918;-67
2022/04/30 12:09:16;;;;;;;;;;;;;;;17.75;39.21;102767.66;5012415;28;19925;-69
2022/04/30 12:11:47;;;;;;;;;;;;;;;18.71;37.54;102762.28;5029804;28;19925;-69
2022/04/30 12:14:12;;;;;;;;;;;;;;;18.95;37.01;102755.78;5032711;28;19917;-68
2022/04/30 12:16:39;;;;;;;;;;;;;;;17.80;38.51;102759.66;5032490;28;20285;-68
2022/04/30 12:24:43;;;;;;;;;;;;;;;18.02;39.66;102747.25;4993198;28;19929;-67
2022/04/30 12:27:10;;;;;;;;;;;;;;;18.54;38.39;102742.19;4993660;28;19933;-69
2022/04/30 12:29:36;;;;;;;;;;;;;;;18.47;38.56;102738.75;5000705;28;19921;-70
2022/04/30 12:32:05;;;;;;;;;;;;;;;18.68;37.67;102743.66;5003105;28;19924;-70
2022/04/30 12:34:36;;;;;;;;;;;;;;;18.36;37.87;102730.25;5003804;28;20265;-67
2022/04/30 12:37:02;;;;;;;;;;;;;;;18.83;37.17;102738.63;5031500;28;19917;-68
2022/04/30 12:39:28;;;;;;;;;;;;;;;17.86;39.05;102742.44;5024813;28;19926;-69
2022/04/30 12:41:54;;;;;;;;;;;;;;;17.78;39.24;102742.72;4993446;28;19914;-69
2022/04/30 12:44:19;;;;;;;;;;;;;;;18.91;37.43;102736.38;4995671;28;20017;-67
2022/04/30 12:46:45;;;;;;;;;;;;;;;17.63;39.39;102734.09;5001384;28;20020;-69
2022/04/30 12:49:12;;;;;;;;;;;;;;;18.58;38.19;102727.03;5008318;28;19926;-69
2022/04/30 12:51:38;;;;;;;;;;;;;;;19.13;37.10;102723.84;5008896;28;19972;-69
2022/04/30 12:54:04;;;;;;;;;;;;;;;18.00;38.91;102730.34;5004368;28;19914;-69
2022/04/30 12:56:30;;;;;;;;;;;;;;;17.23;40.04;102730.09;5003571;28;19921;-70
2022/04/30 12:58:55;;;;;;;;;;;;;;;18.44;38.35;102720.16;5006313;28;19928;-67
2022/04/30 13:01:21;;;;;;;;;;;;;;;18.70;37.61;102725.19;4995592;28;20332;-70
2022/04/30 13:03:46;;;;;;;;;;;;;;;18.22;37.56;102717.06;5001425;28;20530;-70
2022/04/30 13:06:11;;;;;;;;;;;;;;;18.67;36.87;102712.03;5000979;28;20017;-69
2022/04/30 13:14:04;;;;;;;;;;;;;;;18.79;36.02;102707.47;4999777;28;19928;-70
2022/04/30 13:16:29;;;;;;;;;;;;;;;18.86;35.24;102708.16;4995292;28;19930;-68
2022/04/30 13:18:56;;;;;;;;;;;;;;;19.11;35.00;102706.06;5000924;28;20381;-70
2022/04/30 13:21:22;;;;;;;;;;;;;;;19.20;34.49;102702.72;5001979;28;20394;-68
2022/04/30 13:23:47;;;;;;;;;;;;;;;19.65;33.29;102700.25;5010296;28;19979;-69